createdAt,value
2023-04-27T00:01:13.821Z,101816.50
2023-04-27T00:03:41.916Z,101825.69
2023-04-27T00:06:10.037Z,101831.19
2023-04-27T00:08:37.114Z,101827.47
2023-04-27T00:11:03.954Z,101830.00
2023-04-27T00:13:30.728Z,101822.13
2023-04-27T00:15:57.478Z,101819.91
2023-04-27T00:18:24.179Z,101832.97
2023-04-27T00:20:50.768Z,101809.34
2023-04-27T00:23:17.471Z,101825.69
2023-04-27T00:25:44.190Z,101822.28
2023-04-27T00:28:10.766Z,101824.19
2023-04-27T00:30:37.341Z,101809.06
2023-04-27T00:33:04.101Z,101802.53
2023-04-27T00:35:32.470Z,101815.44
2023-04-27T00:37:59.313Z,101824.53
2023-04-27T00:40:26.227Z,101823.47
2023-04-27T00:42:52.832Z,101822.56
2023-04-27T00:45:19.462Z,101822.66
2023-04-27T00:47:46.381Z,101821.88
2023-04-27T00:53:08.154Z,101769.88
2023-04-27T00:55:34.795Z,101791.91
2023-04-27T00:58:01.530Z,101839.19
2023-04-27T01:00:28.410Z,101834.00
2023-04-27T01:02:55.947Z,101846.72
2023-04-27T01:05:25.632Z,101845.84
2023-04-27T01:07:52.223Z,101846.28
2023-04-27T01:10:18.817Z,101651.94
2023-04-27T01:12:45.462Z,101845.94
2023-04-27T01:15:12.001Z,101839.66
2023-04-27T01:17:39.147Z,101838.00
2023-04-27T01:20:07.745Z,101847.97
2023-04-27T01:22:34.454Z,101840.66
2023-04-27T01:25:01.299Z,101832.53
2023-04-27T01:27:27.833Z,101784.31
2023-04-27T01:29:54.340Z,101844.63
2023-04-27T01:32:21.365Z,101851.03
2023-04-27T01:34:47.975Z,101855.47
2023-04-27T01:37:15.885Z,101860.88
2023-04-27T01:39:42.498Z,101854.03
2023-04-27T01:42:09.304Z,101865.94
2023-04-27T01:44:35.944Z,101862.81
2023-04-27T01:47:02.534Z,101805.44
2023-04-27T01:49:29.092Z,101863.66
2023-04-27T01:51:55.722Z,101869.59
2023-04-27T01:54:22.357Z,101868.41
2023-04-27T01:56:48.940Z,101897.22
2023-04-27T01:59:15.692Z,101874.53
2023-04-27T02:01:42.505Z,101881.63
2023-04-27T02:04:09.246Z,101890.47
2023-04-27T02:06:36.455Z,101896.97
2023-04-27T02:09:03.059Z,101889.47
2023-04-27T02:11:29.680Z,101898.03
2023-04-27T02:13:56.276Z,101904.38
2023-04-27T02:16:22.974Z,101897.03
2023-04-27T02:18:50.515Z,101904.63
2023-04-27T02:21:17.231Z,101903.22
2023-04-27T02:23:43.860Z,101902.72
2023-04-27T02:26:17.231Z,101888.31
2023-04-27T02:28:43.791Z,101908.50
2023-04-27T02:31:11.533Z,101897.03
2023-04-27T02:33:38.113Z,101822.66
2023-04-27T02:36:04.935Z,101738.47
2023-04-27T02:38:31.587Z,101900.41
2023-04-27T02:40:58.174Z,101905.47
2023-04-27T02:43:24.964Z,101897.94
2023-04-27T02:45:51.632Z,101904.38
2023-04-27T02:48:18.376Z,101898.78
2023-04-27T02:50:45.606Z,101892.63
2023-04-27T02:53:12.590Z,101853.94
2023-04-27T02:55:45.749Z,101871.00
2023-04-27T02:58:13.484Z,101890.97
2023-04-27T03:00:41.192Z,101892.91
2023-04-27T03:03:08.334Z,101885.41
2023-04-27T03:05:35.072Z,101878.19
2023-04-27T03:08:01.760Z,101899.16
2023-04-27T03:10:28.407Z,101873.59
2023-04-27T03:12:54.988Z,101887.09
2023-04-27T03:15:21.696Z,101878.66
2023-04-27T03:17:48.350Z,101904.06
2023-04-27T03:20:15.434Z,101897.88
2023-04-27T03:22:41.998Z,101907.31
2023-04-27T03:25:08.889Z,101901.53
2023-04-27T03:27:35.623Z,101864.38
2023-04-27T03:30:03.712Z,101857.84
2023-04-27T03:32:30.448Z,101897.28
2023-04-27T03:34:57.247Z,101909.00
2023-04-27T03:37:23.853Z,101910.28
2023-04-27T03:39:50.421Z,101906.09
2023-04-27T03:42:17.045Z,101894.81
2023-04-27T03:44:43.636Z,101909.94
2023-04-27T03:47:10.679Z,101915.34
2023-04-27T03:49:37.266Z,101870.25
2023-04-27T03:52:04.135Z,101918.88
2023-04-27T03:54:33.676Z,101922.81
2023-04-27T03:57:00.276Z,101915.13
2023-04-27T03:59:30.020Z,101920.53
2023-04-27T04:01:59.528Z,101885.69
2023-04-27T04:04:27.938Z,101923.34
2023-04-27T04:06:54.726Z,101897.19
2023-04-27T04:09:23.701Z,101923.41
2023-04-27T04:11:52.146Z,101923.09
2023-04-27T04:14:18.743Z,101928.03
2023-04-27T04:16:45.297Z,101924.03
2023-04-27T04:19:12.281Z,101915.53
2023-04-27T04:21:38.933Z,101922.81
2023-04-27T04:24:06.197Z,101923.28
2023-04-27T04:26:33.720Z,101928.41
2023-04-27T04:29:00.258Z,101936.53
2023-04-27T04:31:27.838Z,101946.56
2023-04-27T04:33:54.437Z,101938.19
2023-04-27T04:36:20.993Z,101964.72
2023-04-27T04:38:47.548Z,101936.44
2023-04-27T04:41:14.287Z,101953.34
2023-04-27T04:43:41.096Z,101949.38
2023-04-27T04:46:07.826Z,101952.09
2023-04-27T04:48:34.772Z,101937.56
2023-04-27T04:51:01.399Z,101940.25
2023-04-27T04:53:27.994Z,101934.31
2023-04-27T04:55:54.673Z,101945.19
2023-04-27T04:58:21.243Z,101938.88
2023-04-27T05:00:47.820Z,101950.97
2023-04-27T05:03:14.456Z,101959.44
2023-04-27T05:05:41.256Z,101955.59
2023-04-27T05:08:07.840Z,101921.53
2023-04-27T05:10:34.414Z,101958.28
2023-04-27T05:13:00.926Z,101952.06
2023-04-27T05:15:27.531Z,101956.59
2023-04-27T05:17:54.543Z,101957.88
2023-04-27T05:20:21.539Z,101957.75
2023-04-27T05:22:48.129Z,101973.44
2023-04-27T05:25:14.750Z,101972.31
2023-04-27T05:27:41.318Z,101955.97
2023-04-27T05:30:08.433Z,101951.56
2023-04-27T05:32:37.019Z,101964.72
2023-04-27T05:35:05.196Z,101987.59
2023-04-27T05:37:31.784Z,101967.59
2023-04-27T05:39:58.472Z,101914.88
2023-04-27T05:42:25.036Z,101894.28
2023-04-27T05:44:51.622Z,101946.56
2023-04-27T05:47:18.248Z,101946.34
2023-04-27T05:49:44.836Z,101951.03
2023-04-27T05:52:11.552Z,101951.03
2023-04-27T05:54:38.095Z,101953.94
2023-04-27T05:57:04.673Z,101947.94
2023-04-27T05:59:31.259Z,101940.78
2023-04-27T06:01:57.922Z,101966.38
2023-04-27T06:04:24.783Z,101967.88
2023-04-27T06:06:51.448Z,101952.91
2023-04-27T06:09:18.055Z,101964.56
2023-04-27T06:11:44.988Z,101964.13
2023-04-27T06:14:11.536Z,101979.25
2023-04-27T06:16:38.289Z,101971.13
2023-04-27T06:19:05.036Z,101930.78
2023-04-27T06:21:33.735Z,101980.25
2023-04-27T06:24:01.265Z,101951.91
2023-04-27T06:26:28.359Z,101976.00
2023-04-27T06:28:56.273Z,101965.38
2023-04-27T06:31:22.993Z,101974.63
2023-04-27T06:33:49.690Z,101924.47
2023-04-27T06:36:16.342Z,101940.06
2023-04-27T06:38:43.250Z,101973.88
2023-04-27T06:41:09.876Z,101966.91
2023-04-27T06:43:36.482Z,101966.25
2023-04-27T06:46:03.235Z,101961.78
2023-04-27T06:48:29.874Z,101921.00
2023-04-27T06:50:56.729Z,101953.09
2023-04-27T06:53:23.311Z,101942.53
2023-04-27T06:55:51.172Z,101877.81
2023-04-27T06:58:17.759Z,101962.00
2023-04-27T07:00:44.432Z,101954.88
2023-04-27T07:03:11.438Z,101953.47
2023-04-27T07:05:38.156Z,101945.91
2023-04-27T07:08:08.274Z,101957.34
2023-04-27T07:10:35.647Z,101951.66
2023-04-27T07:13:02.400Z,101964.59
2023-04-27T07:15:30.582Z,101971.75
2023-04-27T07:17:59.581Z,101964.53
2023-04-27T07:20:26.980Z,101962.69
2023-04-27T07:22:53.515Z,101971.78
2023-04-27T07:25:23.030Z,101910.03
2023-04-27T07:27:49.687Z,101970.72
2023-04-27T07:30:17.567Z,101973.78
2023-04-27T07:32:44.366Z,101973.50
2023-04-27T07:35:11.128Z,101961.94
2023-04-27T07:37:38.458Z,101969.50
2023-04-27T07:40:17.033Z,101979.03
2023-04-27T07:42:43.714Z,101979.69
2023-04-27T07:45:10.788Z,101977.09
2023-04-27T07:47:38.279Z,101988.19
2023-04-27T07:50:07.510Z,101950.88
2023-04-27T07:52:34.267Z,101973.41
2023-04-27T07:55:00.831Z,101908.81
2023-04-27T07:57:27.564Z,101985.28
2023-04-27T07:59:54.120Z,101946.50
2023-04-27T08:02:20.759Z,101976.84
2023-04-27T08:04:48.789Z,101985.41
2023-04-27T08:07:17.651Z,101986.75
2023-04-27T08:09:44.665Z,101914.47
2023-04-27T08:12:11.462Z,101985.78
2023-04-27T08:14:38.014Z,101981.03
2023-04-27T08:17:04.761Z,101982.09
2023-04-27T08:19:31.525Z,101974.56
2023-04-27T08:21:58.147Z,101968.19
2023-04-27T08:24:24.812Z,101961.38
2023-04-27T08:26:51.501Z,101949.34
2023-04-27T08:29:26.985Z,101958.53
2023-04-27T08:31:56.866Z,101960.78
2023-04-27T08:34:24.118Z,101917.72
2023-04-27T08:36:50.863Z,101966.84
2023-04-27T08:39:18.565Z,101964.84
2023-04-27T08:41:45.440Z,101942.69
2023-04-27T08:44:12.405Z,101942.88
2023-04-27T08:46:39.459Z,101948.81
2023-04-27T08:49:07.832Z,101958.78
2023-04-27T08:51:34.988Z,101928.94
2023-04-27T08:54:02.218Z,101945.34
2023-04-27T08:56:29.781Z,101941.03
2023-04-27T08:58:57.449Z,101930.78
2023-04-27T09:01:26.272Z,101937.06
2023-04-27T09:03:57.702Z,101941.81
2023-04-27T09:06:35.664Z,101926.97
2023-04-27T09:09:03.485Z,101945.72
2023-04-27T09:11:35.473Z,101947.88
2023-04-27T09:14:03.968Z,101947.53
2023-04-27T09:16:31.379Z,101942.22
2023-04-27T09:18:59.337Z,101912.84
2023-04-27T09:21:28.271Z,101942.25
2023-04-27T09:23:55.972Z,101941.22
2023-04-27T09:26:27.448Z,101939.88
2023-04-27T09:28:58.050Z,101940.84
2023-04-27T09:31:35.537Z,101938.69
2023-04-27T09:34:03.014Z,101933.72
2023-04-27T09:36:32.456Z,101931.50
2023-04-27T09:39:02.454Z,101854.22
2023-04-27T09:41:29.637Z,101927.38
2023-04-27T09:43:58.087Z,101925.63
2023-04-27T09:46:26.068Z,101918.16
2023-04-27T09:48:53.098Z,101911.81
2023-04-27T09:51:19.631Z,101921.28
2023-04-27T09:53:52.889Z,101917.47
2023-04-27T09:56:51.265Z,101917.41
2023-04-27T09:59:27.016Z,101920.53
2023-04-27T10:02:07.219Z,101908.50
2023-04-27T10:05:03.016Z,101923.59
2023-04-27T10:07:31.554Z,101874.59
2023-04-27T10:10:02.231Z,101914.63
2023-04-27T10:12:36.372Z,101919.47
2023-04-27T10:15:14.703Z,101927.94
2023-04-27T10:17:49.179Z,101878.59
2023-04-27T10:20:16.673Z,101935.22
2023-04-27T10:22:50.313Z,101938.97
2023-04-27T10:25:22.322Z,101917.06
2023-04-27T10:27:54.813Z,101905.09
2023-04-27T10:30:23.979Z,101919.81
2023-04-27T10:32:55.189Z,101917.13
2023-04-27T10:35:36.036Z,101918.13
2023-04-27T10:38:06.414Z,101911.22
2023-04-27T10:40:35.271Z,101863.69
2023-04-27T10:43:13.050Z,101930.50
2023-04-27T10:45:41.140Z,101933.69
2023-04-27T10:48:08.264Z,101773.38
2023-04-27T10:50:35.210Z,101940.00
2023-04-27T10:53:07.687Z,101890.66
2023-04-27T10:55:35.694Z,101939.31
2023-04-27T10:58:03.869Z,101937.63
2023-04-27T11:00:35.364Z,101884.00
2023-04-27T11:03:12.707Z,101933.72
2023-04-27T11:05:39.456Z,101936.31
2023-04-27T11:08:07.154Z,101939.84
2023-04-27T11:10:35.871Z,101946.34
2023-04-27T11:13:11.543Z,101949.28
2023-04-27T11:15:46.705Z,101940.16
2023-04-27T11:18:13.971Z,101908.22
2023-04-27T11:20:40.635Z,101927.50
2023-04-27T11:23:08.116Z,101871.31
2023-04-27T11:25:35.285Z,101936.50
2023-04-27T11:28:01.856Z,101942.66
2023-04-27T11:30:28.568Z,101938.47
2023-04-27T11:32:55.319Z,101945.38
2023-04-27T11:35:33.719Z,101934.59
2023-04-27T11:38:00.433Z,101938.88
2023-04-27T11:40:28.893Z,101927.84
2023-04-27T11:42:59.498Z,101939.72
2023-04-27T11:45:30.189Z,101937.81
2023-04-27T11:47:59.957Z,101913.50
2023-04-27T11:50:27.443Z,101935.75
2023-04-27T11:52:54.154Z,101902.63
2023-04-27T11:55:22.222Z,101835.63
2023-04-27T11:57:49.209Z,101926.50
2023-04-27T12:00:16.704Z,101939.34
2023-04-27T12:02:44.434Z,101934.81
2023-04-27T12:05:13.387Z,101933.72
2023-04-27T12:07:41.354Z,101923.22
2023-04-27T12:10:09.209Z,101909.38
2023-04-27T12:12:36.235Z,101888.44
2023-04-27T12:15:03.454Z,101934.78
2023-04-27T12:17:30.259Z,101932.50
2023-04-27T12:19:56.954Z,101908.91
2023-04-27T12:22:23.613Z,101931.91
2023-04-27T12:24:51.394Z,101939.47
2023-04-27T12:27:18.086Z,101946.09
2023-04-27T12:29:44.669Z,101940.75
2023-04-27T12:32:11.506Z,101940.72
2023-04-27T12:34:39.527Z,101940.03
2023-04-27T12:37:06.737Z,101787.16
2023-04-27T12:39:33.396Z,101946.53
2023-04-27T12:42:00.071Z,101955.66
2023-04-27T12:44:27.155Z,101947.91
2023-04-27T12:46:54.111Z,101961.03
2023-04-27T12:49:20.854Z,101956.78
2023-04-27T12:51:48.160Z,101972.56
2023-04-27T12:54:15.085Z,101947.78
2023-04-27T12:56:42.465Z,101954.91
2023-04-27T12:59:09.570Z,101914.63
2023-04-27T13:01:36.399Z,101959.88
2023-04-27T13:04:04.238Z,101866.50
2023-04-27T13:06:34.738Z,101967.97
2023-04-27T13:09:02.669Z,101948.66
2023-04-27T13:11:29.670Z,101964.16
2023-04-27T13:13:56.316Z,101885.78
2023-04-27T13:16:25.656Z,101912.72
2023-04-27T13:18:55.652Z,101910.72
2023-04-27T13:21:22.609Z,101924.97
2023-04-27T13:23:49.520Z,101977.00
2023-04-27T13:26:16.611Z,101957.50
2023-04-27T13:28:43.273Z,101987.91
2023-04-27T13:31:10.371Z,101989.97
2023-04-27T13:33:42.289Z,101995.25
2023-04-27T13:36:10.441Z,101991.34
2023-04-27T13:38:37.649Z,101994.59
2023-04-27T13:41:05.268Z,101933.38
2023-04-27T13:43:31.985Z,101945.00
2023-04-27T13:46:01.082Z,101981.19
2023-04-27T13:48:28.890Z,101941.91
2023-04-27T13:50:56.140Z,101978.25
2023-04-27T13:53:25.966Z,101977.50
2023-04-27T13:55:57.340Z,101981.28
2023-04-27T13:58:26.243Z,101973.47
2023-04-27T14:00:53.926Z,101954.47
2023-04-27T14:03:20.928Z,101897.53
2023-04-27T14:05:49.161Z,101891.44
2023-04-27T14:08:16.121Z,101957.53
2023-04-27T14:10:43.200Z,101908.81
2023-04-27T14:13:11.593Z,101945.75
2023-04-27T14:15:38.214Z,101938.41
2023-04-27T14:18:06.369Z,101907.13
2023-04-27T14:20:34.566Z,101932.78
2023-04-27T14:23:02.009Z,101876.28
2023-04-27T14:25:32.903Z,101921.22
2023-04-27T14:28:01.061Z,101922.19
2023-04-27T14:30:27.922Z,101898.88
2023-04-27T14:32:54.675Z,101900.00
2023-04-27T14:35:21.539Z,101886.59
2023-04-27T14:37:48.157Z,101873.09
2023-04-27T14:40:15.147Z,101872.94
2023-04-27T14:42:41.938Z,101911.63
2023-04-27T14:45:09.306Z,101913.06
2023-04-27T14:47:36.107Z,101872.09
2023-04-27T14:50:03.632Z,101889.84
2023-04-27T14:52:30.291Z,101914.94
2023-04-27T14:54:57.141Z,101914.09
2023-04-27T14:57:23.860Z,101908.84
2023-04-27T14:59:50.505Z,101895.38
2023-04-27T15:02:18.913Z,101911.38
2023-04-27T15:04:45.990Z,101893.25
2023-04-27T15:07:12.861Z,101916.69
2023-04-27T15:09:39.464Z,101910.91
2023-04-27T15:12:08.120Z,101924.63
2023-04-27T15:14:34.729Z,101919.44
2023-04-27T15:17:01.378Z,101917.25
2023-04-27T15:19:28.076Z,101919.16
2023-04-27T15:21:54.713Z,101912.69
2023-04-27T15:24:21.422Z,101916.00
2023-04-27T15:26:48.659Z,101868.25
2023-04-27T15:29:15.489Z,101910.47
2023-04-27T15:31:42.358Z,101906.56
2023-04-27T15:34:08.937Z,101914.56
2023-04-27T15:36:35.510Z,101909.91
2023-04-27T15:39:02.091Z,101906.53
2023-04-27T15:41:28.834Z,101908.03
2023-04-27T15:43:55.618Z,101902.31
2023-04-27T15:46:22.240Z,101905.19
2023-04-27T15:48:48.857Z,101839.03
2023-04-27T15:51:15.578Z,101897.81
2023-04-27T15:53:42.273Z,101916.63
2023-04-27T15:56:09.162Z,101870.03
2023-04-27T15:58:36.017Z,101894.47
2023-04-27T16:01:02.649Z,101839.75
2023-04-27T16:03:29.387Z,101850.47
2023-04-27T16:05:56.129Z,101897.63
2023-04-27T16:08:22.859Z,101841.06
2023-04-27T16:10:49.853Z,101828.97
2023-04-27T16:13:17.172Z,101860.13
2023-04-27T16:15:44.133Z,101892.53
2023-04-27T16:18:11.481Z,101868.31
2023-04-27T16:20:38.094Z,101892.19
2023-04-27T16:23:04.734Z,101886.03
2023-04-27T16:25:31.428Z,101852.72
2023-04-27T16:27:59.139Z,101884.06
2023-04-27T16:30:25.918Z,101871.50
2023-04-27T16:32:53.038Z,101882.22
2023-04-27T16:35:19.771Z,101879.88
2023-04-27T16:37:46.504Z,101883.81
2023-04-27T16:40:13.317Z,101815.63
2023-04-27T16:42:39.939Z,101890.69
2023-04-27T16:45:09.177Z,101890.13
2023-04-27T16:47:37.349Z,101890.16
2023-04-27T16:50:04.374Z,101816.94
2023-04-27T16:52:31.227Z,101887.06
2023-04-27T16:54:57.996Z,101888.53
2023-04-27T16:57:24.743Z,101875.63
2023-04-27T16:59:51.676Z,101859.38
2023-04-27T17:02:25.328Z,101896.25
2023-04-27T17:04:53.390Z,101846.47
2023-04-27T17:07:19.997Z,101894.59
2023-04-27T17:09:46.585Z,101847.97
2023-04-27T17:12:14.918Z,101894.44
2023-04-27T17:14:42.728Z,101887.34
2023-04-27T17:17:10.627Z,101898.81
2023-04-27T17:19:37.357Z,101864.25
2023-04-27T17:22:04.703Z,101877.94
2023-04-27T17:24:31.265Z,101883.47
2023-04-27T17:26:57.877Z,101895.94
2023-04-27T17:29:24.649Z,101893.78
2023-04-27T17:31:51.359Z,101879.94
2023-04-27T17:34:18.221Z,101898.50
2023-04-27T17:36:46.069Z,101888.94
2023-04-27T17:39:13.986Z,101888.03
2023-04-27T17:41:41.110Z,101851.25
2023-04-27T17:44:07.915Z,101884.50
2023-04-27T17:46:34.636Z,101887.66
2023-04-27T17:49:01.540Z,101887.69
2023-04-27T17:51:28.194Z,101871.41
2023-04-27T17:53:54.870Z,101881.78
2023-04-27T17:56:21.512Z,101843.78
2023-04-27T17:58:48.157Z,101842.16
2023-04-27T18:01:14.832Z,101872.44
2023-04-27T18:03:42.404Z,101876.53
2023-04-27T18:06:11.616Z,101889.47
2023-04-27T18:08:38.189Z,101888.38
2023-04-27T18:11:04.862Z,101860.72
2023-04-27T18:13:32.672Z,101836.00
2023-04-27T18:15:59.933Z,101839.97
2023-04-27T18:18:27.035Z,101899.19
2023-04-27T18:20:53.885Z,101887.34
2023-04-27T18:23:21.211Z,101808.47
2023-04-27T18:25:49.386Z,101846.72
2023-04-27T18:28:16.398Z,101905.50
2023-04-27T18:30:42.918Z,101881.03
2023-04-27T18:33:09.533Z,101830.59
2023-04-27T18:35:36.211Z,101875.78
2023-04-27T18:38:03.649Z,101893.59
2023-04-27T18:40:30.575Z,101875.00
2023-04-27T18:42:57.199Z,101875.69
2023-04-27T18:45:23.939Z,101871.34
2023-04-27T18:47:50.733Z,101894.13
2023-04-27T18:50:17.659Z,101906.94
2023-04-27T18:52:44.291Z,101856.28
2023-04-27T18:55:11.424Z,101906.25
2023-04-27T18:57:38.046Z,101911.72
2023-04-27T19:00:05.952Z,101915.38
2023-04-27T19:02:33.151Z,101910.16
2023-04-27T19:05:11.014Z,101900.84
2023-04-27T19:07:39.366Z,101885.16
2023-04-27T19:10:06.831Z,101909.41
2023-04-27T19:12:33.473Z,101914.88
2023-04-27T19:15:00.063Z,101907.75
2023-04-27T19:17:27.427Z,101925.81
2023-04-27T19:19:54.514Z,101915.16
2023-04-27T19:22:21.145Z,101920.03
2023-04-27T19:24:48.172Z,101904.38
2023-04-27T19:27:14.799Z,101894.25
2023-04-27T19:29:52.702Z,101923.28
2023-04-27T19:32:19.872Z,101904.63
2023-04-27T19:34:47.340Z,101922.03
2023-04-27T19:37:14.139Z,101928.53
2023-04-27T19:39:40.743Z,101903.44
2023-04-27T19:42:07.544Z,101918.25
2023-04-27T19:44:34.171Z,101931.41
2023-04-27T19:47:00.883Z,101927.84
2023-04-27T19:49:31.114Z,101926.31
2023-04-27T19:51:57.687Z,101877.22
2023-04-27T19:54:24.229Z,101923.06
2023-04-27T19:56:50.775Z,101915.03
2023-04-27T19:59:17.377Z,101906.47
2023-04-27T20:01:44.144Z,101898.66
2023-04-27T20:04:11.166Z,101914.06
2023-04-27T20:06:37.863Z,101913.41
2023-04-27T20:09:04.601Z,101861.28
2023-04-27T20:11:31.202Z,101892.69
2023-04-27T20:13:57.775Z,101916.53
2023-04-27T20:16:25.834Z,101858.88
2023-04-27T20:18:53.020Z,101890.47
2023-04-27T20:21:21.590Z,101899.91
2023-04-27T20:23:48.979Z,101915.50
2023-04-27T20:26:15.628Z,101918.34
2023-04-27T20:28:42.806Z,101842.97
2023-04-27T20:31:09.698Z,101919.56
2023-04-27T20:33:36.464Z,101887.25
2023-04-27T20:36:14.196Z,101923.53
2023-04-27T20:38:46.190Z,101909.69
2023-04-27T20:41:12.879Z,101926.03
2023-04-27T20:43:40.323Z,101920.75
2023-04-27T20:46:16.645Z,101885.41
2023-04-27T20:48:43.457Z,101920.00
2023-04-27T20:51:10.094Z,101884.47
2023-04-27T20:53:36.996Z,101911.16
2023-04-27T20:56:03.940Z,101915.56
2023-04-27T20:58:30.567Z,101839.31
2023-04-27T21:00:57.204Z,101835.88
2023-04-27T21:03:24.087Z,101914.78
2023-04-27T21:05:50.972Z,101876.19
2023-04-27T21:08:17.558Z,101916.44
2023-04-27T21:10:44.819Z,101920.78
2023-04-27T21:13:11.414Z,101919.72
2023-04-27T21:15:38.706Z,101915.06
2023-04-27T21:18:09.377Z,101914.44
2023-04-27T21:20:37.845Z,101900.84
2023-04-27T21:23:05.587Z,101915.56
2023-04-27T21:25:32.176Z,101867.88
2023-04-27T21:27:59.232Z,101912.88
2023-04-27T21:30:25.944Z,101867.69
2023-04-27T21:32:52.594Z,101907.34
2023-04-27T21:35:19.398Z,101906.66
2023-04-27T21:37:46.144Z,101909.53
2023-04-27T21:40:13.082Z,101914.16
2023-04-27T21:42:39.615Z,101902.41
2023-04-27T21:45:06.823Z,101857.00
2023-04-27T21:47:33.482Z,101903.69
2023-04-27T21:50:00.161Z,101878.03
2023-04-27T21:52:26.754Z,101832.75
2023-04-27T21:54:53.424Z,101904.22
2023-04-27T21:57:20.272Z,101817.50
2023-04-27T21:59:46.888Z,101886.31
2023-04-27T22:02:13.723Z,101876.78
2023-04-27T22:04:40.438Z,101890.28
2023-04-27T22:07:10.530Z,101889.16
2023-04-27T22:09:37.303Z,101859.94
2023-04-27T22:12:04.410Z,101896.63
2023-04-27T22:14:31.564Z,101895.88
2023-04-27T22:17:00.912Z,101886.25
2023-04-27T22:19:28.886Z,101889.44
2023-04-27T22:21:55.624Z,101896.16
2023-04-27T22:24:22.365Z,101856.41
2023-04-27T22:26:49.045Z,101826.69
2023-04-27T22:29:16.670Z,101881.50
2023-04-27T22:31:44.576Z,101875.59
2023-04-27T22:34:14.784Z,101887.53
2023-04-27T22:36:41.602Z,101840.00
2023-04-27T22:39:08.594Z,101828.19
2023-04-27T22:41:35.328Z,101863.97
2023-04-27T22:44:01.943Z,101874.28
2023-04-27T22:46:28.485Z,101880.41
2023-04-27T22:48:55.148Z,101875.78
2023-04-27T22:51:21.915Z,101874.09
2023-04-27T22:53:48.821Z,101872.28
2023-04-27T22:56:15.405Z,101874.09
2023-04-27T22:58:42.194Z,101816.66
2023-04-27T23:01:08.964Z,101875.19
2023-04-27T23:03:35.798Z,101876.97
2023-04-27T23:06:02.445Z,101872.59
2023-04-27T23:08:29.653Z,101862.97
2023-04-27T23:10:56.962Z,101876.53
2023-04-27T23:13:27.711Z,101863.88
2023-04-27T23:15:54.607Z,101811.50
2023-04-27T23:18:21.520Z,101875.72
2023-04-27T23:20:53.699Z,101870.34
2023-04-27T23:23:20.432Z,101865.00
2023-04-27T23:25:47.081Z,101869.06
2023-04-27T23:28:13.673Z,101869.06
2023-04-27T23:30:40.428Z,101879.53
2023-04-27T23:33:07.328Z,101873.25
2023-04-27T23:35:34.048Z,101868.97
2023-04-27T23:38:00.744Z,101861.19
2023-04-27T23:40:27.348Z,101846.94
2023-04-27T23:42:53.912Z,101866.97
2023-04-27T23:45:21.078Z,101862.69
2023-04-27T23:47:47.706Z,101860.72
2023-04-27T23:50:14.376Z,101854.09
2023-04-27T23:52:40.931Z,101857.66
2023-04-27T23:55:08.011Z,101848.44
2023-04-27T23:57:34.614Z,101752.13
